Mico, Texas
Current Conditions -  °F | °C
As of 9:35 AM on Thursday 30 Oct 2014 (Local Time) from KCVB Reporting Station
Haze Haze  
Wind Chill: 68°   Ceiling: 500
Heat Index: 68°   Visibility: 4mi
Dew Point: 65°   Wind: 5mph
Humidity: 90%   Direction: 100°E
Pressure: 30.16"   Gusts: NA
Location:  29.54°N, 98.92°W
Report Text: KCVB 301435Z AUTO 10004KT 4SM BR OVC005 20/18 A3016 RMK AO2 T01980181
Loading
Personal Weather Stations






























Interactive Weather Map
Tropical Storm Tracking
New forecast layout! Learn more

10-Day Weather Forecast

Advertisements
Track Severe Weather on mobile